Meteo Giornale » Osservazioni meteo Kyrgyzstan » Bishkek-Manas Int. Airport
ore: 11:30 - Osservazioni Meteo Bishkek-Manas Int. Airport
Lat. 43° 4' N Lon. 74° 29' E Alt. 627 metri s.l.m.
22 °C
Poco Nuvoloso
Temp. 24 Ore
15 °C
34 °C
Nord
7.2 Km/h
Dew point 4 °C
Umidità 30 %
Visibilità 10 Km
Il sole sorge alle ore 06:26
Il sole tramonta alle ore 19:38
| Data e Ora | Cielo e Fenomeni | T °C | DP °C | Um. % | Pres. hPa | Vis. km | Vento km/h | |
|---|---|---|---|---|---|---|---|---|
| Oggi h: 11:30 | Poco Nuvoloso | 22 | 4 | 30 | 1016 | 10 | N 7.2 | |
| Oggi h: 11:00 | Poco Nuvoloso | 21 | 4 | 32 | 1016 | 10 | N 7.2 | |
| Oggi h: 10:30 | Poco Nuvoloso | 20 | 4 | 34 | 1017 | 10 | N 7.2 | |
| Oggi h: 10:00 | Nuvoloso | 19 | 3 | 34 | 1017 | 10 | O 10.8 | |
| Oggi h: 09:30 | Molto Nuvoloso | 18 | 3 | 36 | 1017 | 10 | O/SO 10.8 | |
| Oggi h: 09:00 | Molto Nuvoloso | 16 | 5 | 47 | 1017 | 10 | N 7.2 | |
| Oggi h: 08:30 | Molto Nuvoloso | 16 | 6 | 51 | 1017 | 10 | O/SO 14.4 | |
| Oggi h: 08:00 | Molto Nuvoloso | 16 | 8 | 58 | 1017 | 10 | SO 10.8 | |
| Oggi h: 07:30 | Molto Nuvoloso | 16 | 10 | 67 | 1017 | 10 | SO 14.4 | |
| Oggi h: 07:00 | Molto Nuvoloso | 18 | 10 | 59 | 1017 | 10 | SO 10.8 | |
| Oggi h: 06:30 | Molto Nuvoloso | 17 | 9 | 59 | 1017 | 10 | N 3.6 | |
| Oggi h: 06:00 | Molto Nuvoloso | 17 | 11 | 67 | 1017 | 10 | N 7.2 | |
| Oggi h: 05:30 | Molto Nuvoloso | 16 | 12 | 77 | 1017 | 10 | N 7.2 | |
| Oggi h: 05:00 | Molto Nuvoloso | 16 | 11 | 72 | 1017 | 10 | N 7.2 | |
| Oggi h: 04:30 | Molto Nuvoloso | 16 | 11 | 72 | 1017 | 10 | N 3.6 | |
| Oggi h: 04:00 | Molto Nuvoloso | 15 | 11 | 76 | 1016 | 10 | N 3.6 | |
| Oggi h: 03:30 | Molto Nuvoloso | 17 | 9 | 59 | 1016 | 10 | O 10.8 | |
| Oggi h: 03:00 | Molto Nuvoloso | 18 | 9 | 55 | 1016 | 10 | O/SO 10.8 | |
| Oggi h: 02:30 | Molto Nuvoloso | 19 | 9 | 52 | 1016 | 10 | S/SO 10.8 | |
| Oggi h: 02:00 | Pioggia | 18 | 9 | 55 | 1016 | 10 | S/SO 10.8 | |
| Oggi h: 01:30 | Molto Nuvoloso | 18 | 10 | 59 | 1017 | 10 | S 10.8 | |
| Oggi h: 01:00 | Molto Nuvoloso | 18 | 10 | 59 | 1017 | 10 | S 10.8 | |
| Oggi h: 00:30 | Molto Nuvoloso | 18 | 11 | 63 | 1017 | 10 | S 14.4 | |
| Oggi h: 00:00 | Molto Nuvoloso | 17 | 11 | 67 | 1017 | 10 | S 14.4 | |
| Ieri h: 23:30 | Molto Nuvoloso | 18 | 13 | 72 | 1017 | 10 | S/SO 10.8 | |
| Ieri h: 23:00 | Pioggia | 18 | 11 | 63 | 1016 | 10 | O 10.8 | |
| Ieri h: 22:30 | Pioggia | 18 | 12 | 67 | 1016 | 10 | O 10.8 | |
| Ieri h: 22:00 | Pioggia | 18 | 13 | 72 | 1016 | 10 | O/NO 14.4 | |
| Ieri h: 21:30 | Molto Nuvoloso | 19 | 13 | 68 | 1016 | 10 | O/NO 14.4 | |
| Ieri h: 21:00 | Molto Nuvoloso | 21 | 14 | 64 | 1016 | 10 | O/NO 21.6 | |
| Ieri h: 20:30 | Molto Nuvoloso | 22 | 14 | 60 | 1015 | 10 | NO 25.2 | |
| Ieri h: 20:00 | Molto Nuvoloso | 24 | 12 | 47 | 1014 | 10 | O 21.6 | |
| Ieri h: 19:30 | Molto Nuvoloso | 24 | 12 | 47 | 1013 | 10 | O/NO 28.8 | |
| Ieri h: 19:00 | Molto Nuvoloso | 26 | 11 | 39 | 1013 | 10 | O/NO 21.6 | |
| Ieri h: 18:30 | Molto Nuvoloso | 26 | 11 | 39 | 1012 | 10 | O/NO 25.2 | |
| Ieri h: 18:00 | Temporale nelle vicinanze | 27 | 10 | 34 | 1012 | 10 | O/NO 28.8 | |
| Ieri h: 17:30 | Molto Nuvoloso | 29 | 10 | 30 | 1012 | 10 | O/NO 36 | |
| Ieri h: 17:00 | Nuvoloso | 29 | 10 | 30 | 1011 | 10 | O/NO 32.4 | |
| Ieri h: 16:30 | Nuvoloso | 30 | 10 | 28 | 1011 | 10 | O/NO 43.2 | |
| Ieri h: 16:00 | Sereno | 32 | 9 | 24 | 1009 | 10 | O/NO 43.2 | |
| Ieri h: 15:30 | Sereno | 33 | 7 | 19 | 1008 | 10 | O 36 | |
| Ieri h: 15:00 | Sereno | 33 | 7 | 19 | 1008 | 10 | O/NO 36 | |
| Ieri h: 14:30 | Sereno | 33 | 7 | 19 | 1008 | 10 | O/NO 32.4 | |
| Ieri h: 14:00 | Poco Nuvoloso | 34 | 8 | 20 | 1007 | 10 | O/NO 36 | |
| Ieri h: 13:30 | Sereno | 34 | 7 | 18 | 1007 | 10 | O 32.4 | |
| Ieri h: 13:00 | Sereno | 33 | 8 | 21 | 1007 | 10 | O 28.8 | |



